createdAt,value
2024-01-20T00:01:34.897Z,2.70
2024-01-20T00:04:03.404Z,2.70
2024-01-20T00:06:31.678Z,2.70
2024-01-20T00:09:00.179Z,2.70
2024-01-20T00:11:28.361Z,2.70
2024-01-20T00:13:57.793Z,2.70
2024-01-20T00:16:25.811Z,2.70
2024-01-20T00:18:53.984Z,2.70
2024-01-20T00:21:23.657Z,2.70
2024-01-20T00:23:52.072Z,2.70
2024-01-20T00:26:20.159Z,2.80
2024-01-20T00:28:48.425Z,2.80
2024-01-20T00:31:18.579Z,2.80
2024-01-20T00:33:51.363Z,2.70
2024-01-20T00:36:19.646Z,2.70
2024-01-20T00:38:47.760Z,2.80
2024-01-20T00:41:17.784Z,2.70
2024-01-20T00:43:46.734Z,2.70
2024-01-20T00:46:14.607Z,2.70
2024-01-20T00:48:43.867Z,2.70
2024-01-20T00:51:11.859Z,2.80
2024-01-20T00:53:39.728Z,2.80
2024-01-20T00:56:09.025Z,2.80
2024-01-20T00:58:36.956Z,2.80
2024-01-20T01:01:06.256Z,2.80
2024-01-20T01:03:34.246Z,2.80
2024-01-20T01:06:03.654Z,2.80
2024-01-20T01:08:31.608Z,2.80
2024-01-20T01:11:00.614Z,2.80
2024-01-20T01:13:28.622Z,2.80
2024-01-20T01:15:56.901Z,2.80
2024-01-20T01:18:24.792Z,2.80
2024-01-20T01:20:53.562Z,2.80
2024-01-20T01:23:22.915Z,2.80
2024-01-20T01:25:51.561Z,2.80
2024-01-20T01:28:19.444Z,2.80
2024-01-20T01:30:49.214Z,2.80
2024-01-20T01:33:17.204Z,2.80
2024-01-20T01:35:45.229Z,2.80
2024-01-20T01:38:13.283Z,2.80
2024-01-20T01:40:42.778Z,2.80
2024-01-20T01:43:10.802Z,2.90
2024-01-20T01:45:38.620Z,2.90
2024-01-20T01:48:07.075Z,2.90
2024-01-20T01:50:35.091Z,2.80
2024-01-20T01:53:03.287Z,2.80
2024-01-20T01:55:31.340Z,2.80
2024-01-20T01:58:02.385Z,2.80
2024-01-20T02:00:31.034Z,2.80
2024-01-20T02:02:59.359Z,2.80
2024-01-20T02:05:27.374Z,2.80
2024-01-20T02:07:56.164Z,2.80
2024-01-20T02:10:24.347Z,2.70
2024-01-20T02:12:52.704Z,2.80
2024-01-20T02:15:22.361Z,2.70
2024-01-20T02:17:51.925Z,2.70
2024-01-20T02:20:20.252Z,2.70
2024-01-20T02:22:49.531Z,2.70
2024-01-20T02:25:17.625Z,2.70
2024-01-20T02:27:45.622Z,2.70
2024-01-20T02:30:13.954Z,2.70
2024-01-20T02:32:42.155Z,2.60
2024-01-20T02:35:12.800Z,2.60
2024-01-20T02:37:41.452Z,2.60
2024-01-20T02:40:12.165Z,2.60
2024-01-20T02:42:40.064Z,2.60
2024-01-20T02:45:08.765Z,2.60
2024-01-20T02:47:36.921Z,2.60
2024-01-20T02:50:05.275Z,2.50
2024-01-20T02:52:33.425Z,2.60
2024-01-20T02:55:01.326Z,2.50
2024-01-20T02:57:30.753Z,2.50
2024-01-20T02:59:59.134Z,2.50
2024-01-20T03:02:27.051Z,2.50
2024-01-20T03:04:54.998Z,2.40
2024-01-20T03:07:21.958Z,2.40
2024-01-20T03:09:49.900Z,2.50
2024-01-20T03:12:17.845Z,2.40
2024-01-20T03:14:47.898Z,2.40
2024-01-20T03:17:15.837Z,2.40
2024-01-20T03:19:44.099Z,2.40
2024-01-20T03:22:12.045Z,2.50
2024-01-20T03:24:40.835Z,2.50
2024-01-20T03:27:10.462Z,2.50
2024-01-20T03:29:38.409Z,2.50
2024-01-20T03:32:08.323Z,2.50
2024-01-20T03:34:36.348Z,2.50
2024-01-20T03:37:04.565Z,2.50
2024-01-20T03:39:32.846Z,2.40
2024-01-20T03:42:00.733Z,2.40
2024-01-20T03:44:28.627Z,2.40
2024-01-20T03:46:56.520Z,2.40
2024-01-20T03:49:26.041Z,2.40
2024-01-20T03:51:54.039Z,2.40
2024-01-20T03:54:21.902Z,2.40
2024-01-20T03:56:49.799Z,2.40
2024-01-20T03:59:17.653Z,2.40
2024-01-20T04:01:45.548Z,2.40
2024-01-20T04:04:13.494Z,2.30
2024-01-20T04:06:42.806Z,2.30
2024-01-20T04:09:12.794Z,2.30
2024-01-20T04:11:40.886Z,2.20
2024-01-20T04:14:09.134Z,2.30
2024-01-20T04:16:38.621Z,2.20
2024-01-20T04:19:06.644Z,2.20
2024-01-20T04:21:34.541Z,2.20
2024-01-20T04:24:03.924Z,2.10
2024-01-20T04:26:31.842Z,2.20
2024-01-20T04:28:59.725Z,2.10
2024-01-20T04:31:27.622Z,2.20
2024-01-20T04:33:55.606Z,2.20
2024-01-20T04:36:23.606Z,2.20
2024-01-20T04:38:51.639Z,2.20
2024-01-20T04:41:20.901Z,2.30
2024-01-20T04:43:48.856Z,2.30
2024-01-20T04:46:16.775Z,2.30
2024-01-20T04:48:44.928Z,2.30
2024-01-20T04:51:12.839Z,2.30
2024-01-20T04:53:41.871Z,2.30
2024-01-20T04:56:09.807Z,2.30
2024-01-20T04:58:39.586Z,2.20
2024-01-20T05:01:07.662Z,2.20
2024-01-20T05:03:35.577Z,2.20
2024-01-20T05:06:05.351Z,2.20
2024-01-20T05:08:33.314Z,2.20
2024-01-20T05:11:01.310Z,2.30
2024-01-20T05:13:29.177Z,2.30
2024-01-20T05:15:58.455Z,2.30
2024-01-20T05:18:26.384Z,2.30
2024-01-20T05:20:54.377Z,2.30
2024-01-20T05:23:22.507Z,2.30
2024-01-20T05:25:50.545Z,2.30
2024-01-20T05:28:18.495Z,2.30
2024-01-20T05:30:46.546Z,2.40
2024-01-20T05:33:15.863Z,2.30
2024-01-20T05:35:43.872Z,2.40
2024-01-20T05:38:11.712Z,2.30
2024-01-20T05:40:40.405Z,2.30
2024-01-20T05:43:08.377Z,2.30
2024-01-20T05:45:37.882Z,2.30
2024-01-20T05:48:06.164Z,2.30
2024-01-20T05:50:35.456Z,2.30
2024-01-20T05:53:03.375Z,2.30
2024-01-20T05:55:31.258Z,2.20
2024-01-20T05:57:59.128Z,2.20
2024-01-20T06:00:27.126Z,2.20
2024-01-20T06:02:55.081Z,2.20
2024-01-20T06:05:23.156Z,2.10
2024-01-20T06:07:52.413Z,2.10
2024-01-20T06:10:20.591Z,2.10
2024-01-20T06:12:48.501Z,2.10
2024-01-20T06:15:16.648Z,2.10
2024-01-20T06:17:45.690Z,2.10
2024-01-20T06:20:15.559Z,2.10
2024-01-20T06:22:43.483Z,2.10
2024-01-20T06:25:14.201Z,2.10
2024-01-20T06:27:42.111Z,2.00
2024-01-20T06:30:10.692Z,2.00
2024-01-20T06:32:38.648Z,2.00
2024-01-20T06:35:07.883Z,2.10
2024-01-20T06:37:35.855Z,2.10
2024-01-20T06:40:04.238Z,2.10
2024-01-20T06:42:33.716Z,2.10
2024-01-20T06:45:01.885Z,2.10
2024-01-20T06:47:30.929Z,2.10
2024-01-20T06:49:58.862Z,2.10
2024-01-20T06:52:26.730Z,2.10
2024-01-20T06:54:54.586Z,2.10
2024-01-20T06:57:22.589Z,2.10
2024-01-20T06:59:52.024Z,2.10
2024-01-20T07:02:20.835Z,2.10
2024-01-20T07:04:49.104Z,2.10
2024-01-20T07:07:17.061Z,2.10
2024-01-20T07:09:44.934Z,2.10
2024-01-20T07:12:13.869Z,2.10
2024-01-20T07:14:43.286Z,2.10
2024-01-20T07:17:12.683Z,2.00
2024-01-20T07:19:40.582Z,2.00
2024-01-20T07:22:08.488Z,2.00
2024-01-20T07:24:36.443Z,2.00
2024-01-20T07:27:04.616Z,2.00
2024-01-20T07:29:32.485Z,2.00
2024-01-20T07:32:00.577Z,2.00
2024-01-20T07:34:29.887Z,1.90
2024-01-20T07:36:57.948Z,1.90
2024-01-20T07:39:25.938Z,2.00
2024-01-20T07:41:53.959Z,2.00
2024-01-20T07:44:22.098Z,2.00
2024-01-20T07:46:50.073Z,2.00
2024-01-20T07:49:18.108Z,2.00
2024-01-20T07:51:47.649Z,2.00
2024-01-20T07:54:17.511Z,2.00
2024-01-20T07:56:45.535Z,2.10
2024-01-20T07:59:13.463Z,2.00
2024-01-20T08:01:41.495Z,2.10
2024-01-20T08:04:09.380Z,2.10
2024-01-20T08:06:38.273Z,2.10
2024-01-20T08:09:07.911Z,2.10
2024-01-20T08:11:36.658Z,2.10
2024-01-20T08:14:04.537Z,2.10
2024-01-20T08:16:32.408Z,2.10
2024-01-20T08:19:00.400Z,2.10
2024-01-20T08:21:28.468Z,2.10
2024-01-20T08:23:56.846Z,2.10
2024-01-20T08:26:26.209Z,2.10
2024-01-20T08:28:54.281Z,2.20
2024-01-20T08:31:22.365Z,2.10
2024-01-20T08:33:50.979Z,2.20
2024-01-20T08:36:19.048Z,2.20
2024-01-20T08:38:47.028Z,2.30
2024-01-20T08:41:14.923Z,2.30
2024-01-20T08:43:45.621Z,2.30
2024-01-20T08:46:14.045Z,2.30
2024-01-20T08:48:42.290Z,2.20
2024-01-20T08:51:10.423Z,2.20
2024-01-20T08:53:38.994Z,2.20
2024-01-20T08:56:07.623Z,2.30
2024-01-20T08:58:35.463Z,2.30
2024-01-20T09:01:05.464Z,2.40
2024-01-20T09:03:33.619Z,2.50
2024-01-20T09:06:01.773Z,2.50
2024-01-20T09:08:29.772Z,2.60
2024-01-20T09:10:59.220Z,2.60
2024-01-20T09:13:27.369Z,2.70
2024-01-20T09:15:55.450Z,2.80
2024-01-20T09:18:25.472Z,2.80
2024-01-20T09:20:53.516Z,2.80
2024-01-20T09:23:21.763Z,2.70
2024-01-20T09:25:49.977Z,2.70
2024-01-20T09:28:17.812Z,2.50
2024-01-20T09:30:46.284Z,2.50
2024-01-20T09:33:15.278Z,2.50
2024-01-20T09:35:47.386Z,2.50
2024-01-20T09:38:15.291Z,2.60
2024-01-20T09:40:43.210Z,2.60
2024-01-20T09:43:11.986Z,2.60
2024-01-20T09:45:41.274Z,2.70
2024-01-20T09:48:09.932Z,2.70
2024-01-20T09:50:38.109Z,2.80
2024-01-20T09:53:15.220Z,2.90
2024-01-20T09:55:45.092Z,3.00
2024-01-20T09:58:14.103Z,3.00
2024-01-20T10:00:43.433Z,3.10
2024-01-20T10:03:13.211Z,3.20
2024-01-20T10:05:41.519Z,3.30
2024-01-20T10:08:11.817Z,3.30
2024-01-20T10:10:39.909Z,3.30
2024-01-20T10:13:07.817Z,3.40
2024-01-20T10:15:36.946Z,3.50
2024-01-20T10:18:09.301Z,3.50
2024-01-20T10:20:38.048Z,3.50
2024-01-20T10:23:07.281Z,3.60
2024-01-20T10:25:36.803Z,3.70
2024-01-20T10:28:05.140Z,3.70
2024-01-20T10:30:33.119Z,3.70
2024-01-20T10:33:09.422Z,3.70
2024-01-20T10:35:39.069Z,3.80
2024-01-20T10:38:12.162Z,3.70
2024-01-20T10:40:43.314Z,3.80
2024-01-20T10:43:16.684Z,3.80
2024-01-20T10:45:48.368Z,3.90
2024-01-20T10:48:20.137Z,3.80
2024-01-20T10:50:54.526Z,3.80
2024-01-20T10:53:23.148Z,3.80
2024-01-20T10:55:53.328Z,3.80
2024-01-20T10:58:25.166Z,3.70
2024-01-20T11:00:54.063Z,3.70
2024-01-20T11:03:22.979Z,3.80
2024-01-20T11:05:51.076Z,3.80
2024-01-20T11:08:26.188Z,3.80
2024-01-20T11:10:56.590Z,3.90
2024-01-20T11:13:28.180Z,4.00
2024-01-20T11:15:58.882Z,4.00
2024-01-20T11:18:28.021Z,4.00
2024-01-20T11:20:58.779Z,3.90
2024-01-20T11:23:27.697Z,4.00
2024-01-20T11:25:57.764Z,4.00
2024-01-20T11:28:27.453Z,4.10
2024-01-20T11:30:55.727Z,4.10
2024-01-20T11:33:25.207Z,4.20
2024-01-20T11:35:53.890Z,4.20
2024-01-20T11:38:22.589Z,4.20
2024-01-20T11:41:01.405Z,4.10
2024-01-20T11:43:29.544Z,4.10
2024-01-20T11:45:58.556Z,4.00
2024-01-20T11:48:27.422Z,4.00
2024-01-20T11:50:55.847Z,3.90
2024-01-20T11:53:24.337Z,3.90
2024-01-20T11:55:56.351Z,3.90
2024-01-20T11:58:26.060Z,3.90
2024-01-20T12:00:54.432Z,3.90
2024-01-20T12:03:23.484Z,4.20
2024-01-20T12:05:52.801Z,4.30
2024-01-20T12:08:21.725Z,4.20
2024-01-20T12:10:50.837Z,4.20
2024-01-20T12:13:18.888Z,4.10
2024-01-20T12:15:50.654Z,4.30
2024-01-20T12:18:18.998Z,4.30
2024-01-20T12:20:47.105Z,4.40
2024-01-20T12:23:20.095Z,4.60
2024-01-20T12:25:48.420Z,4.60
2024-01-20T12:28:18.231Z,4.60
2024-01-20T12:30:46.290Z,4.50
2024-01-20T12:33:15.706Z,4.50
2024-01-20T12:35:43.654Z,4.50
2024-01-20T12:38:11.805Z,4.50
2024-01-20T12:40:39.678Z,4.50
2024-01-20T12:43:07.574Z,4.50
2024-01-20T12:45:35.507Z,4.40
2024-01-20T12:48:03.570Z,4.40
2024-01-20T12:50:32.967Z,4.30
2024-01-20T12:53:01.020Z,4.30
2024-01-20T12:55:29.466Z,4.30
2024-01-20T12:57:57.297Z,4.30
2024-01-20T13:00:25.280Z,4.30
2024-01-20T13:02:53.258Z,4.30
2024-01-20T13:05:21.511Z,4.40
2024-01-20T13:07:50.952Z,4.50
2024-01-20T13:10:19.121Z,4.50
2024-01-20T13:12:47.042Z,4.60
2024-01-20T13:15:15.351Z,4.60
2024-01-20T13:17:43.277Z,4.60
2024-01-20T13:20:12.968Z,4.50
2024-01-20T13:22:40.956Z,4.40
2024-01-20T13:25:10.639Z,4.30
2024-01-20T13:27:39.041Z,4.20
2024-01-20T13:30:08.641Z,4.20
2024-01-20T13:32:36.701Z,4.10
2024-01-20T13:35:05.208Z,4.10
2024-01-20T13:37:33.137Z,4.10
2024-01-20T13:40:00.977Z,4.20
2024-01-20T13:42:30.329Z,4.20
2024-01-20T13:44:58.301Z,4.20
2024-01-20T13:47:26.359Z,4.30
2024-01-20T13:49:54.289Z,4.40
2024-01-20T13:52:22.581Z,4.40
2024-01-20T13:54:51.432Z,4.40
2024-01-20T13:57:19.773Z,4.40
2024-01-20T13:59:49.062Z,4.40
2024-01-20T14:02:16.998Z,4.30
2024-01-20T14:04:46.767Z,4.30
2024-01-20T14:07:14.825Z,4.30
2024-01-20T14:09:42.954Z,4.30
2024-01-20T14:12:11.205Z,4.30
2024-01-20T14:14:39.203Z,4.40
2024-01-20T14:17:08.438Z,4.30
2024-01-20T14:19:39.053Z,4.40
2024-01-20T14:22:07.717Z,4.40
2024-01-20T14:24:35.604Z,4.40
2024-01-20T14:27:03.578Z,4.40
2024-01-20T14:29:31.456Z,4.30
2024-01-20T14:32:03.885Z,4.20
2024-01-20T14:34:33.338Z,4.20
2024-01-20T14:37:03.589Z,4.20
2024-01-20T14:39:32.547Z,4.10
2024-01-20T14:42:00.701Z,4.10
2024-01-20T14:44:28.623Z,4.10
2024-01-20T14:46:56.527Z,4.10
2024-01-20T14:49:25.090Z,4.10
2024-01-20T14:51:54.454Z,4.00
2024-01-20T14:54:22.559Z,3.90
2024-01-20T14:56:50.607Z,3.90
2024-01-20T14:59:18.638Z,3.90
2024-01-20T15:01:48.254Z,3.90
2024-01-20T15:04:16.506Z,3.80
2024-01-20T15:06:44.779Z,3.70
2024-01-20T15:09:14.233Z,3.70
2024-01-20T15:11:42.422Z,3.60
2024-01-20T15:14:10.367Z,3.60
2024-01-20T15:16:38.491Z,3.60
2024-01-20T15:19:07.465Z,3.50
2024-01-20T15:21:35.466Z,3.40
2024-01-20T15:24:04.339Z,3.40
2024-01-20T15:26:33.658Z,3.30
2024-01-20T15:29:01.493Z,3.30
2024-01-20T15:31:30.279Z,3.20
2024-01-20T15:33:59.856Z,3.20
2024-01-20T15:36:28.013Z,3.20
2024-01-20T15:38:55.922Z,3.10
2024-01-20T15:41:24.117Z,3.10
2024-01-20T15:43:53.297Z,3.10
2024-01-20T15:46:21.959Z,3.00
2024-01-20T15:48:50.062Z,3.00
2024-01-20T15:51:18.281Z,3.00
2024-01-20T15:53:46.637Z,3.00
2024-01-20T15:56:15.263Z,2.90
2024-01-20T15:58:43.622Z,2.90
2024-01-20T16:01:13.079Z,2.90
2024-01-20T16:03:41.065Z,2.80
2024-01-20T16:06:09.749Z,2.80
2024-01-20T16:08:37.720Z,2.80
2024-01-20T16:11:05.949Z,2.80
2024-01-20T16:13:33.901Z,2.80
2024-01-20T16:16:04.024Z,2.70
2024-01-20T16:18:34.437Z,2.70
2024-01-20T16:21:04.613Z,2.70
2024-01-20T16:23:32.652Z,2.60
2024-01-20T16:26:00.494Z,2.60
2024-01-20T16:28:30.922Z,2.60
2024-01-20T16:31:00.531Z,2.50
2024-01-20T16:33:28.653Z,2.50
2024-01-20T16:35:58.076Z,2.50
2024-01-20T16:38:25.934Z,2.50
2024-01-20T16:40:53.927Z,2.50
2024-01-20T16:43:21.823Z,2.50
2024-01-20T16:45:49.897Z,2.40
2024-01-20T16:48:19.014Z,2.40
2024-01-20T16:50:47.394Z,2.40
2024-01-20T16:53:16.666Z,2.40
2024-01-20T16:55:44.861Z,2.40
2024-01-20T16:58:12.836Z,2.40
2024-01-20T17:00:40.968Z,2.30
2024-01-20T17:03:08.963Z,2.40
2024-01-20T17:05:36.937Z,2.30
2024-01-20T17:08:05.574Z,2.40
2024-01-20T17:10:35.658Z,2.30
2024-01-20T17:13:03.594Z,2.30
2024-01-20T17:15:31.754Z,2.20
2024-01-20T17:17:59.807Z,2.20
2024-01-20T17:20:27.745Z,2.20
2024-01-20T17:22:56.885Z,2.10
2024-01-20T17:25:25.988Z,2.10
2024-01-20T17:27:55.253Z,2.10
2024-01-20T17:30:23.849Z,2.00
2024-01-20T17:32:51.841Z,2.00
2024-01-20T17:35:20.902Z,2.00
2024-01-20T17:37:48.811Z,2.00
2024-01-20T17:40:16.953Z,1.90
2024-01-20T17:42:45.537Z,1.90
2024-01-20T17:45:16.440Z,1.90
2024-01-20T17:47:46.927Z,1.80
2024-01-20T17:50:15.784Z,1.80
2024-01-20T17:52:43.822Z,1.80
2024-01-20T17:55:11.847Z,1.70
2024-01-20T17:57:39.862Z,1.70
2024-01-20T18:00:11.410Z,1.70
2024-01-20T18:02:42.472Z,1.60
2024-01-20T18:05:10.668Z,1.60
2024-01-20T18:07:38.823Z,1.60
2024-01-20T18:10:07.543Z,1.60
2024-01-20T18:12:35.678Z,1.60
2024-01-20T18:15:04.108Z,1.50
2024-01-20T18:17:32.324Z,1.50
2024-01-20T18:20:03.996Z,1.50
2024-01-20T18:22:32.152Z,1.50
2024-01-20T18:25:00.284Z,1.50
2024-01-20T18:27:29.098Z,1.50
2024-01-20T18:29:57.243Z,1.40
2024-01-20T18:32:25.573Z,1.60
2024-01-20T18:34:53.833Z,1.60
2024-01-20T18:37:23.534Z,1.50
2024-01-20T18:39:52.765Z,1.40
2024-01-20T18:42:21.087Z,1.40
2024-01-20T18:44:49.317Z,1.30
2024-01-20T18:47:17.185Z,1.20
2024-01-20T18:49:45.368Z,1.20
2024-01-20T18:52:13.758Z,1.20
2024-01-20T18:54:44.043Z,1.10
2024-01-20T18:57:12.810Z,1.10
2024-01-20T18:59:41.729Z,1.00
2024-01-20T19:02:09.722Z,1.00
2024-01-20T19:04:38.492Z,1.00
2024-01-20T19:07:06.953Z,0.90
2024-01-20T19:09:34.862Z,0.90
2024-01-20T19:12:04.348Z,0.80
2024-01-20T19:14:32.302Z,0.80
2024-01-20T19:17:00.176Z,0.80
2024-01-20T19:19:30.019Z,0.70
2024-01-20T19:21:58.631Z,0.80
2024-01-20T19:24:26.564Z,0.70
2024-01-20T19:26:54.422Z,0.60
2024-01-20T19:29:23.930Z,0.70
2024-01-20T19:31:51.808Z,0.60
2024-01-20T19:34:19.848Z,0.60
2024-01-20T19:36:47.982Z,0.60
2024-01-20T19:39:15.996Z,0.60
2024-01-20T19:41:43.876Z,0.60
2024-01-20T19:44:11.830Z,0.60
2024-01-20T19:46:42.962Z,0.60
2024-01-20T19:49:11.368Z,0.60
2024-01-20T19:51:41.849Z,0.50
2024-01-20T19:54:10.117Z,0.50
2024-01-20T19:56:43.363Z,0.50
2024-01-20T19:59:11.465Z,0.50
2024-01-20T20:01:44.722Z,0.50
2024-01-20T20:04:16.760Z,0.50
2024-01-20T20:06:46.323Z,0.50
2024-01-20T20:09:14.637Z,0.60
2024-01-20T20:11:42.576Z,0.50
2024-01-20T20:14:12.861Z,0.60
2024-01-20T20:16:41.656Z,0.60
2024-01-20T20:19:13.447Z,0.50
2024-01-20T20:21:41.782Z,0.50
2024-01-20T20:24:11.278Z,0.60
2024-01-20T20:26:43.016Z,0.60
2024-01-20T20:29:12.855Z,0.60
2024-01-20T20:31:41.156Z,0.60
2024-01-20T20:34:10.892Z,0.70
2024-01-20T20:36:40.700Z,0.70
2024-01-20T20:39:09.037Z,0.70
2024-01-20T20:41:36.920Z,0.70
2024-01-20T20:44:04.906Z,0.80
2024-01-20T20:46:34.509Z,0.80
2024-01-20T20:49:03.126Z,0.80
2024-01-20T20:51:32.441Z,0.90
2024-01-20T20:54:01.124Z,0.80
2024-01-20T20:56:29.106Z,0.80
2024-01-20T20:58:57.090Z,0.80
2024-01-20T21:01:27.653Z,0.90
2024-01-20T21:03:55.749Z,0.90
2024-01-20T21:06:23.694Z,0.90
2024-01-20T21:08:52.942Z,0.90
2024-01-20T21:11:20.862Z,0.90
2024-01-20T21:13:48.936Z,0.90
2024-01-20T21:16:17.228Z,0.90
2024-01-20T21:18:45.273Z,0.90
2024-01-20T21:21:14.170Z,1.00
2024-01-20T21:23:42.093Z,1.00
2024-01-20T21:26:11.292Z,1.00
2024-01-20T21:28:39.234Z,1.00
2024-01-20T21:31:08.699Z,1.00
2024-01-20T21:33:38.121Z,1.00
2024-01-20T21:36:08.093Z,1.10
2024-01-20T21:38:35.995Z,1.10
2024-01-20T21:41:03.966Z,1.10
2024-01-20T21:43:33.337Z,1.10
2024-01-20T21:46:01.667Z,1.10
2024-01-20T21:48:29.664Z,1.10
2024-01-20T21:50:58.483Z,1.10
2024-01-20T21:53:26.507Z,1.20
2024-01-20T21:55:54.457Z,1.10
2024-01-20T21:58:22.292Z,1.10
2024-01-20T22:00:52.560Z,1.10
2024-01-20T22:03:20.606Z,1.10
2024-01-20T22:05:48.946Z,1.10
2024-01-20T22:08:16.842Z,1.10
2024-01-20T22:10:45.123Z,1.20
2024-01-20T22:13:13.086Z,1.20
2024-01-20T22:15:41.237Z,1.30
2024-01-20T22:18:10.646Z,1.20
2024-01-20T22:20:40.314Z,1.30
2024-01-20T22:23:09.833Z,1.30
2024-01-20T22:25:37.676Z,1.30
2024-01-20T22:28:05.993Z,1.20
2024-01-20T22:30:34.054Z,1.30
2024-01-20T22:33:02.430Z,1.30
2024-01-20T22:35:31.648Z,1.30
2024-01-20T22:38:00.529Z,1.30
2024-01-20T22:40:29.281Z,1.30
2024-01-20T22:42:57.411Z,1.40
2024-01-20T22:45:25.412Z,1.30
2024-01-20T22:47:53.572Z,1.30
2024-01-20T22:50:21.915Z,1.30
2024-01-20T22:52:51.170Z,1.30
2024-01-20T22:55:19.287Z,1.30
2024-01-20T22:57:47.410Z,1.40
2024-01-20T23:00:25.437Z,1.40
2024-01-20T23:02:54.356Z,1.40
2024-01-20T23:05:22.542Z,1.40
2024-01-20T23:07:51.935Z,1.40
2024-01-20T23:10:20.186Z,1.40
2024-01-20T23:12:48.437Z,1.40
2024-01-20T23:15:16.400Z,1.40
2024-01-20T23:17:44.641Z,1.40
2024-01-20T23:20:13.695Z,1.40
2024-01-20T23:22:41.747Z,1.40
2024-01-20T23:25:11.376Z,1.40
2024-01-20T23:27:39.625Z,1.40
2024-01-20T23:30:08.696Z,1.50
2024-01-20T23:32:37.022Z,1.40
2024-01-20T23:35:06.267Z,1.50
2024-01-20T23:37:34.169Z,1.50
2024-01-20T23:40:02.813Z,1.50
2024-01-20T23:42:32.764Z,1.40
2024-01-20T23:45:00.745Z,1.40
2024-01-20T23:47:28.614Z,1.40
2024-01-20T23:49:56.544Z,1.50
2024-01-20T23:52:24.447Z,1.40
2024-01-20T23:54:52.330Z,1.40
2024-01-20T23:57:20.288Z,1.50
2024-01-20T23:59:49.950Z,1.50
